Main page
METAR-TAF:

METAR-TAF

Airports :

Al Najaf International Airport

Najaf, Iraq

latitude: 31-59-23N, longitude: 44-24-15E, elevation: 31 m

Current weather observation

The report was made 40 minutes ago, at 05:00 UTC
Wind 12 kt from the Northwest
Temperature 32°C
Humidity 21%
Pressure 1000 hPa
Visibility: 8000 m

METAR: ORNI 150500Z 32012KT 8000 NSC 32/07 Q1000

Time: 08:40 (05:40 UTC)

Forecast

The report was made 1 hour and 40 minutes ago, at 04:00 UTC
Forecast valid from 15 at 06 UTC to 16 at 06 UTC
Wind 12 kt from the Northwest
Visibility: 8000 m

TAF: ORNI 150400Z 1506/1606 32012KT 8000 NSC

Weather observations and forecasts of more than 4000 airports (METAR and TAF reports).

The available stations are represented by yellow and red dots on the map.

Hover mouse over dot to see the name of the station.

Then click to see weather observations and forecasts.

To change the map : click on the green buttons with a black cross to zoom in, on the green button with a dash to zoom out, or on the green arrows for adjacent maps.


METAR-TAF: